Huvudsida
METAR-TAF:

METAR-TAF

Flygplatser :

Kärrdals flygplats

Kärrdal, Estland

latitud: 58-59N, longitud: 022-49E, höjd: 5 m

Aktuellt väderrapport

Denna rapport gjordes för 8 timmar och 27 minuter sedan, klockan 14:50 UTC
Vind 6 kt från väst/nordväst
Temperatur 10°C
Fuktighet 76%
Tryck 1010 hPa
Sikt 10 km eller mer
Få moln på en höjd av 2100 ft

METAR: EEKA 131450Z 29006KT 9999 FEW021 10/06 Q1010

Tid: 02:17 (23:17 UTC)

Väderprognos

Denna rapport gjordes för 11 timmar och 17 minuter sedan, klockan 12:00 UTC
Prognos gäller från 13 kl. 13 UTC till 13 kl. 19 UTC
Vind 12 kt från väst
Sikt 10 km eller mer
Spridda moln på en höjd av 2500 ft
Blir
från 13 kl. 16 UTC till 13 kl. 18 UTC
Vind 2 kt varierande vindriktning

TAF: EEKA 131200Z 1313/1319 28012KT 9999 SCT025 BECMG 1316/1318 VRB02KT

Aktuella väderrapporter och prognoser från 4000 flygplatser (METAR- och TAF-rapporter).

De tillgängliga stationerna syns som gula och röda prickar på kartan.

För musen över prickarna för att se namnen på stationerna.

Klicka sedan för att få väderrapporter och prognoser.

För att ändra kartan: Klicka på de gröna knapparna med ett svart kors på för att zooma in; den gröna knappen med ett streck på för att zooma ut; eller på de gröna pilarna för angränsande kartor.


METAR-TAF: